createdAt,value
2017-12-05T00:00:05.818Z,81.80
2017-12-05T00:02:31.850Z,81.70
2017-12-05T00:04:58.618Z,82.30
2017-12-05T00:07:24.665Z,82.30
2017-12-05T00:09:50.716Z,81.50
2017-12-05T00:12:16.813Z,82.00
2017-12-05T00:14:43.705Z,81.30
2017-12-05T00:17:10.088Z,81.30
2017-12-05T00:19:36.162Z,81.60
2017-12-05T00:22:02.205Z,81.30
2017-12-05T00:24:28.246Z,81.80
2017-12-05T00:26:54.329Z,82.20
2017-12-05T00:29:20.513Z,81.40
2017-12-05T00:31:46.555Z,81.10
2017-12-05T00:34:12.589Z,81.50
2017-12-05T00:36:38.638Z,81.00
2017-12-05T00:39:04.688Z,80.40
2017-12-05T00:41:30.763Z,80.30
2017-12-05T00:43:56.833Z,81.00
2017-12-05T00:46:22.866Z,80.70
2017-12-05T00:48:49.575Z,80.90
2017-12-05T00:51:15.626Z,81.00
2017-12-05T00:53:41.678Z,80.80
2017-12-05T00:56:07.794Z,80.60
2017-12-05T00:58:33.856Z,80.00
2017-12-05T01:01:01.837Z,80.80
2017-12-05T01:03:28.616Z,81.30
2017-12-05T01:05:54.962Z,81.30
2017-12-05T01:08:21.022Z,80.00
2017-12-05T01:10:47.061Z,80.40
2017-12-05T01:13:13.089Z,79.80
2017-12-05T01:15:39.149Z,80.00
2017-12-05T01:18:05.198Z,81.00
2017-12-05T01:20:31.242Z,80.50
2017-12-05T01:22:57.300Z,80.70
2017-12-05T01:25:23.366Z,80.00
2017-12-05T01:27:49.414Z,80.40
2017-12-05T01:30:15.445Z,80.80
2017-12-05T01:32:41.477Z,80.50
2017-12-05T01:35:07.513Z,80.70
2017-12-05T01:37:33.586Z,81.10
2017-12-05T01:39:59.610Z,80.90
2017-12-05T01:42:25.646Z,80.60
2017-12-05T01:44:51.682Z,79.60
2017-12-05T01:47:17.732Z,79.50
2017-12-05T01:49:43.770Z,80.70
2017-12-05T01:52:09.806Z,80.70
2017-12-05T01:54:35.886Z,80.30
2017-12-05T01:57:06.787Z,80.60
2017-12-05T01:59:32.809Z,79.40
2017-12-05T02:01:58.845Z,80.10
2017-12-05T02:04:24.896Z,80.00
2017-12-05T02:06:50.949Z,79.90
2017-12-05T02:09:17.789Z,81.10
2017-12-05T02:11:43.822Z,80.40
2017-12-05T02:14:09.887Z,80.50
2017-12-05T02:16:36.714Z,80.20
2017-12-05T02:19:02.749Z,80.20
2017-12-05T02:21:28.792Z,80.50
2017-12-05T02:23:54.825Z,80.40
2017-12-05T02:26:20.890Z,80.30
2017-12-05T02:28:46.916Z,81.00
2017-12-05T02:31:13.673Z,80.50
2017-12-05T02:33:40.453Z,80.80
2017-12-05T02:36:06.525Z,80.80
2017-12-05T02:38:32.654Z,80.80
2017-12-05T02:41:08.897Z,80.80
2017-12-05T02:43:34.949Z,80.50
2017-12-05T02:46:00.996Z,80.70
2017-12-05T02:48:27.038Z,80.00
2017-12-05T02:50:53.061Z,80.50
2017-12-05T02:53:19.085Z,80.90
2017-12-05T02:55:45.115Z,81.30
2017-12-05T02:58:11.162Z,81.70
2017-12-05T03:00:37.281Z,80.50
2017-12-05T03:03:03.306Z,81.20
2017-12-05T03:05:30.091Z,80.90
2017-12-05T03:07:56.142Z,80.90
2017-12-05T03:10:22.172Z,81.10
2017-12-05T03:12:48.206Z,80.40
2017-12-05T03:15:14.253Z,80.50
2017-12-05T03:17:40.338Z,80.80
2017-12-05T03:20:06.397Z,80.50
2017-12-05T03:22:32.473Z,80.70
2017-12-05T03:24:58.518Z,79.60
2017-12-05T03:27:24.561Z,79.50
2017-12-05T03:29:50.602Z,80.50
2017-12-05T03:32:16.636Z,80.40
2017-12-05T03:34:42.675Z,80.00
2017-12-05T03:37:08.849Z,79.30
2017-12-05T03:39:35.134Z,80.10
2017-12-05T03:42:03.248Z,80.70
2017-12-05T03:44:29.498Z,79.40
2017-12-05T03:46:56.488Z,80.10
2017-12-05T03:49:22.711Z,80.10
2017-12-05T03:51:49.679Z,80.40
2017-12-05T03:54:15.926Z,80.30
2017-12-05T03:56:42.174Z,79.90
2017-12-05T03:59:08.417Z,79.60
2017-12-05T04:01:34.637Z,80.50
2017-12-05T04:04:01.650Z,80.60
2017-12-05T04:06:27.946Z,80.60
2017-12-05T04:08:54.203Z,80.50
2017-12-05T04:11:20.437Z,79.40
2017-12-05T04:13:46.677Z,79.30
2017-12-05T04:16:12.931Z,78.70
2017-12-05T04:18:39.181Z,78.60
2017-12-05T04:21:05.505Z,78.60
2017-12-05T04:23:32.500Z,78.90
2017-12-05T04:25:58.701Z,78.80
2017-12-05T04:28:26.043Z,78.40
2017-12-05T04:30:53.040Z,78.00
2017-12-05T04:33:19.280Z,78.00
2017-12-05T04:35:45.540Z,78.90
2017-12-05T04:38:11.793Z,78.10
2017-12-05T04:40:38.109Z,77.60
2017-12-05T04:43:04.355Z,77.70
2017-12-05T04:45:30.609Z,79.40
2017-12-05T04:47:56.863Z,79.60
2017-12-05T04:50:23.127Z,80.50
2017-12-05T04:52:50.124Z,81.70
2017-12-05T04:55:17.129Z,82.20
2017-12-05T04:57:43.386Z,82.20
2017-12-05T05:00:10.380Z,83.70
2017-12-05T05:02:36.688Z,83.60
2017-12-05T05:05:02.987Z,84.00
2017-12-05T05:07:29.198Z,84.20
2017-12-05T05:09:56.186Z,85.00
2017-12-05T05:12:22.774Z,85.00
2017-12-05T05:14:49.108Z,84.30
2017-12-05T05:17:15.375Z,84.30
2017-12-05T05:19:42.403Z,84.50
2017-12-05T05:22:08.661Z,84.40
2017-12-05T05:24:34.890Z,84.70
2017-12-05T05:27:01.118Z,84.70
2017-12-05T05:29:28.113Z,85.40
2017-12-05T05:31:54.347Z,85.40
2017-12-05T05:34:21.328Z,85.20
2017-12-05T05:36:48.270Z,85.40
2017-12-05T05:39:14.481Z,85.20
2017-12-05T05:41:40.729Z,86.50
2017-12-05T05:44:06.994Z,86.80
2017-12-05T05:46:33.305Z,86.40
2017-12-05T05:48:59.577Z,86.00
2017-12-05T05:51:26.950Z,85.60
2017-12-05T05:53:53.954Z,85.00
2017-12-05T05:56:20.629Z,85.00
2017-12-05T05:58:46.935Z,85.40
2017-12-05T06:01:13.175Z,85.60
2017-12-05T06:03:39.401Z,86.20
2017-12-05T06:06:05.644Z,85.50
2017-12-05T06:08:32.032Z,85.70
2017-12-05T06:10:58.280Z,85.80
2017-12-05T06:13:24.505Z,85.50
2017-12-05T06:15:53.120Z,85.00
2017-12-05T06:18:19.148Z,85.70
2017-12-05T06:20:45.393Z,85.60
2017-12-05T06:23:11.623Z,85.50
2017-12-05T06:25:37.970Z,85.40
2017-12-05T06:28:04.209Z,86.20
2017-12-05T06:30:30.482Z,86.80
2017-12-05T06:32:57.533Z,86.50
2017-12-05T06:35:23.874Z,86.50
2017-12-05T06:37:50.118Z,86.50
2017-12-05T06:40:16.342Z,86.20
2017-12-05T06:42:43.354Z,85.20
2017-12-05T06:45:11.305Z,85.10
2017-12-05T06:47:38.173Z,86.70
2017-12-05T06:50:04.947Z,86.00
2017-12-05T06:52:31.008Z,85.90
2017-12-05T06:54:57.086Z,86.40
2017-12-05T06:57:23.325Z,86.20
2017-12-05T06:59:49.836Z,86.10
2017-12-05T07:02:16.058Z,85.60
2017-12-05T07:04:43.321Z,86.80
2017-12-05T07:07:09.577Z,86.90
2017-12-05T07:09:35.870Z,85.50
2017-12-05T07:12:02.846Z,85.70
2017-12-05T07:14:29.115Z,85.70
2017-12-05T07:16:56.925Z,85.80
2017-12-05T07:19:23.198Z,84.50
2017-12-05T07:21:50.266Z,86.10
2017-12-05T07:24:16.549Z,86.10
2017-12-05T07:26:42.787Z,85.40
2017-12-05T07:29:09.000Z,85.20
2017-12-05T07:31:35.253Z,86.70
2017-12-05T07:34:01.509Z,86.50
2017-12-05T07:36:27.755Z,86.80
2017-12-05T07:38:54.799Z,87.00
2017-12-05T07:41:21.062Z,87.00
2017-12-05T07:43:47.314Z,86.60
2017-12-05T07:46:13.557Z,86.50
2017-12-05T07:48:39.809Z,86.30
2017-12-05T07:51:06.081Z,86.50
2017-12-05T07:53:33.061Z,86.30
2017-12-05T07:55:59.292Z,86.10
2017-12-05T07:58:25.533Z,85.60
2017-12-05T08:00:56.195Z,86.50
2017-12-05T08:03:22.429Z,85.60
2017-12-05T08:05:48.685Z,85.90
2017-12-05T08:08:14.913Z,85.60
2017-12-05T08:10:41.142Z,85.50
2017-12-05T08:13:07.398Z,87.10
2017-12-05T08:15:34.441Z,86.90
2017-12-05T08:18:03.842Z,86.90
2017-12-05T08:20:30.130Z,87.00
2017-12-05T08:22:56.402Z,87.50
2017-12-05T08:25:22.656Z,86.10
2017-12-05T08:27:48.901Z,85.40
2017-12-05T08:30:15.908Z,85.20
2017-12-05T08:32:43.860Z,85.20
2017-12-05T08:35:13.265Z,85.40
2017-12-05T08:37:39.457Z,85.40
2017-12-05T08:40:05.503Z,85.40
2017-12-05T08:42:31.541Z,86.30
2017-12-05T08:44:57.617Z,84.80
2017-12-05T08:47:23.658Z,85.30
2017-12-05T08:49:54.730Z,86.60
2017-12-05T08:52:21.736Z,85.30
2017-12-05T08:54:47.976Z,85.30
2017-12-05T08:57:14.227Z,85.40
2017-12-05T08:59:40.473Z,85.10
2017-12-05T09:02:07.473Z,84.50
2017-12-05T09:04:39.359Z,84.80
2017-12-05T09:07:06.245Z,84.00
2017-12-05T09:09:32.296Z,84.00
2017-12-05T09:11:58.325Z,82.60
2017-12-05T09:14:24.349Z,82.60
2017-12-05T09:16:50.391Z,83.60
2017-12-05T09:19:16.433Z,84.00
2017-12-05T09:21:46.098Z,82.50
2017-12-05T09:24:12.146Z,84.30
2017-12-05T09:26:38.186Z,83.70
2017-12-05T09:29:05.722Z,82.60
2017-12-05T09:31:31.758Z,82.60
2017-12-05T09:33:57.856Z,84.10
2017-12-05T09:36:23.861Z,82.60
2017-12-05T09:38:49.997Z,83.50
2017-12-05T09:41:34.466Z,83.30
2017-12-05T09:44:00.718Z,83.70
2017-12-05T09:46:27.182Z,83.50
2017-12-05T09:48:53.442Z,83.00
2017-12-05T09:51:24.697Z,82.70
2017-12-05T09:53:51.057Z,83.20
2017-12-05T09:56:18.065Z,83.60
2017-12-05T09:58:44.290Z,83.60
2017-12-05T10:01:10.526Z,83.70
2017-12-05T10:03:36.771Z,83.80
2017-12-05T10:06:03.029Z,84.60
2017-12-05T10:08:33.585Z,82.60
2017-12-05T10:10:59.841Z,82.60
2017-12-05T10:13:26.119Z,82.60
2017-12-05T10:15:53.167Z,82.60
2017-12-05T10:18:20.145Z,82.60
2017-12-05T10:20:46.354Z,82.60
2017-12-05T10:23:12.598Z,81.70
2017-12-05T10:25:42.929Z,81.90
2017-12-05T10:28:09.192Z,81.40
2017-12-05T10:30:35.476Z,81.70
2017-12-05T10:33:01.764Z,81.60
2017-12-05T10:35:28.014Z,81.30
2017-12-05T10:37:54.263Z,81.80
2017-12-05T10:40:20.546Z,81.70
2017-12-05T10:42:48.724Z,80.60
2017-12-05T10:45:15.017Z,80.80
2017-12-05T10:47:42.074Z,78.90
2017-12-05T10:50:08.366Z,78.60
2017-12-05T10:52:34.634Z,80.40
2017-12-05T10:55:00.873Z,79.70
2017-12-05T10:57:27.119Z,79.70
2017-12-05T10:59:53.349Z,80.00
2017-12-05T11:02:23.280Z,80.10
2017-12-05T11:04:49.590Z,79.60
2017-12-05T11:07:16.763Z,78.80
2017-12-05T11:09:43.970Z,78.00
2017-12-05T11:12:10.206Z,79.00
2017-12-05T11:14:36.453Z,78.50
2017-12-05T11:17:07.910Z,79.10
2017-12-05T11:19:34.186Z,78.10
2017-12-05T11:22:00.430Z,78.00
2017-12-05T11:24:26.677Z,78.00
2017-12-05T11:26:52.914Z,78.40
2017-12-05T11:29:19.166Z,78.40
2017-12-05T11:31:45.395Z,78.60
2017-12-05T11:34:11.628Z,78.00
2017-12-05T11:36:39.431Z,77.20
2017-12-05T11:39:06.515Z,77.20
2017-12-05T11:41:33.522Z,76.70
2017-12-05T11:43:59.783Z,76.60
2017-12-05T11:46:26.046Z,76.60
2017-12-05T11:48:53.069Z,76.20
2017-12-05T11:51:24.159Z,76.30
2017-12-05T11:53:50.469Z,76.90
2017-12-05T11:56:16.748Z,76.40
2017-12-05T11:58:43.046Z,76.00
2017-12-05T12:01:09.306Z,75.10
2017-12-05T12:03:35.545Z,74.50
2017-12-05T12:06:01.799Z,75.30
2017-12-05T12:08:30.710Z,76.00
2017-12-05T12:10:56.974Z,75.90
2017-12-05T12:13:23.978Z,75.90
2017-12-05T12:15:50.233Z,75.90
2017-12-05T12:18:16.490Z,75.80
2017-12-05T12:20:42.750Z,75.30
2017-12-05T12:23:09.005Z,75.70
2017-12-05T12:25:38.830Z,75.80
2017-12-05T12:28:05.971Z,74.30
2017-12-05T12:30:32.237Z,74.30
2017-12-05T12:32:58.460Z,73.80
2017-12-05T12:35:24.718Z,73.30
2017-12-05T12:37:50.962Z,74.20
2017-12-05T12:40:17.222Z,73.90
2017-12-05T12:42:47.255Z,74.30
2017-12-05T12:45:14.266Z,74.60
2017-12-05T12:47:40.530Z,74.60
2017-12-05T12:50:06.806Z,73.70
2017-12-05T12:52:33.798Z,73.60
2017-12-05T12:55:00.058Z,73.60
2017-12-05T12:57:26.374Z,73.40
2017-12-05T12:59:58.911Z,73.70
2017-12-05T13:02:25.137Z,73.70
2017-12-05T13:04:51.390Z,73.40
2017-12-05T13:07:17.695Z,73.80
2017-12-05T13:09:44.057Z,73.30
2017-12-05T13:12:10.322Z,73.30
2017-12-05T13:14:36.639Z,73.20
2017-12-05T13:17:08.066Z,73.40
2017-12-05T13:19:34.322Z,73.40
2017-12-05T13:22:01.277Z,73.20
2017-12-05T13:24:28.325Z,73.90
2017-12-05T13:26:55.318Z,73.30
2017-12-05T13:29:21.628Z,73.30
2017-12-05T13:31:49.706Z,72.20
2017-12-05T13:34:17.784Z,72.20
2017-12-05T13:36:44.023Z,72.40
2017-12-05T13:39:10.262Z,73.00
2017-12-05T13:41:37.266Z,72.40
2017-12-05T13:44:03.574Z,72.40
2017-12-05T13:46:30.594Z,72.80
2017-12-05T13:49:00.102Z,72.70
2017-12-05T13:51:26.362Z,73.00
2017-12-05T13:53:52.674Z,72.10
2017-12-05T13:56:18.946Z,70.90
2017-12-05T13:58:45.189Z,72.20
2017-12-05T14:01:11.452Z,71.50
2017-12-05T14:03:37.807Z,70.70
2017-12-05T14:06:06.471Z,71.00
2017-12-05T14:08:32.719Z,70.80
2017-12-05T14:10:59.005Z,70.90
2017-12-05T14:13:25.241Z,70.30
2017-12-05T14:15:51.505Z,70.90
2017-12-05T14:18:18.509Z,71.50
2017-12-05T14:20:44.772Z,71.50
2017-12-05T14:23:12.928Z,71.10
2017-12-05T14:25:39.226Z,71.10
2017-12-05T14:28:05.471Z,70.30
2017-12-05T14:30:32.507Z,71.30
2017-12-05T14:32:58.726Z,71.30
2017-12-05T14:35:24.967Z,70.90
2017-12-05T14:37:51.241Z,70.90
2017-12-05T14:40:17.497Z,71.00
2017-12-05T14:42:46.922Z,70.90
2017-12-05T14:45:13.205Z,70.70
2017-12-05T14:47:40.200Z,70.20
2017-12-05T14:50:06.471Z,70.00
2017-12-05T14:52:33.498Z,70.30
2017-12-05T14:54:59.766Z,70.30
2017-12-05T14:57:26.026Z,70.40
2017-12-05T14:59:52.274Z,70.50
2017-12-05T15:02:18.547Z,70.90
2017-12-05T15:04:44.805Z,70.20
2017-12-05T15:07:11.160Z,70.70
2017-12-05T15:09:37.405Z,70.20
2017-12-05T15:12:03.718Z,70.10
2017-12-05T15:14:30.574Z,70.20
2017-12-05T15:16:57.618Z,69.40
2017-12-05T15:19:24.618Z,69.50
2017-12-05T15:21:50.886Z,69.50
2017-12-05T15:24:17.153Z,69.70
2017-12-05T15:26:43.490Z,69.40
2017-12-05T15:29:09.767Z,69.20
2017-12-05T15:31:36.215Z,70.40
2017-12-05T15:34:02.517Z,69.30
2017-12-05T15:36:28.794Z,69.10
2017-12-05T15:38:55.047Z,68.90
2017-12-05T15:41:21.286Z,69.10
2017-12-05T15:43:48.242Z,68.80
2017-12-05T15:46:14.537Z,68.70
2017-12-05T15:48:40.911Z,69.00
2017-12-05T15:51:07.306Z,68.80
2017-12-05T15:53:34.385Z,69.60
2017-12-05T15:56:00.738Z,69.60
2017-12-05T15:58:26.999Z,68.80
2017-12-05T16:00:53.270Z,69.50
2017-12-05T16:03:19.531Z,68.50
2017-12-05T16:05:45.925Z,68.40
2017-12-05T16:08:12.946Z,69.60
2017-12-05T16:10:39.238Z,69.50
2017-12-05T16:13:06.201Z,70.30
2017-12-05T16:15:35.284Z,70.20
2017-12-05T16:18:01.534Z,68.80
2017-12-05T16:20:28.538Z,69.40
2017-12-05T16:22:54.810Z,69.40
2017-12-05T16:25:21.049Z,68.70
2017-12-05T16:27:48.121Z,69.90
2017-12-05T16:30:15.113Z,68.60
2017-12-05T16:32:41.401Z,68.50
2017-12-05T16:35:07.649Z,69.10
2017-12-05T16:37:33.921Z,69.00
2017-12-05T16:40:00.809Z,68.90
2017-12-05T16:42:27.045Z,68.50
2017-12-05T16:44:53.299Z,69.50
2017-12-05T16:47:19.558Z,69.00
2017-12-05T16:49:45.813Z,69.70
2017-12-05T16:52:12.073Z,69.30
2017-12-05T16:54:38.467Z,70.00
2017-12-05T16:57:05.365Z,68.90
2017-12-05T16:59:32.368Z,68.60
2017-12-05T17:01:58.703Z,68.80
2017-12-05T17:04:25.006Z,68.80
2017-12-05T17:06:51.378Z,68.30
2017-12-05T17:09:18.439Z,69.50
2017-12-05T17:11:44.754Z,69.50
2017-12-05T17:14:11.853Z,69.00
2017-12-05T17:16:38.159Z,69.00
2017-12-05T17:19:04.514Z,69.90
2017-12-05T17:21:30.753Z,70.60
2017-12-05T17:23:56.982Z,70.30
2017-12-05T17:26:23.258Z,70.50
2017-12-05T17:28:49.535Z,70.20
2017-12-05T17:31:15.818Z,69.40
2017-12-05T17:33:42.054Z,69.50
2017-12-05T17:36:09.094Z,69.70
2017-12-05T17:38:37.906Z,69.70
2017-12-05T17:41:04.615Z,69.60
2017-12-05T17:43:31.575Z,70.20
2017-12-05T17:45:57.846Z,70.20
2017-12-05T17:48:24.890Z,70.00
2017-12-05T17:50:51.162Z,70.00
2017-12-05T17:53:18.141Z,69.00
2017-12-05T17:55:47.797Z,69.20
2017-12-05T17:58:14.110Z,69.20
2017-12-05T18:00:40.397Z,68.90
2017-12-05T18:03:07.386Z,69.10
2017-12-05T18:05:33.673Z,69.10
2017-12-05T18:07:59.922Z,70.00
2017-12-05T18:10:26.934Z,69.50
2017-12-05T18:12:56.251Z,68.90
2017-12-05T18:15:22.490Z,68.30
2017-12-05T18:17:48.751Z,68.30
2017-12-05T18:20:15.006Z,68.30
2017-12-05T18:22:41.238Z,68.80
2017-12-05T18:25:07.490Z,69.40
2017-12-05T18:27:33.729Z,68.80
2017-12-05T18:29:59.975Z,68.30
2017-12-05T18:32:31.148Z,68.20
2017-12-05T18:34:57.406Z,68.30
2017-12-05T18:37:24.398Z,68.60
2017-12-05T18:39:51.386Z,68.60
2017-12-05T18:42:17.649Z,68.60
2017-12-05T18:44:43.874Z,68.30
2017-12-05T18:47:10.122Z,69.40
2017-12-05T18:49:39.962Z,68.70
2017-12-05T18:52:06.410Z,68.80
2017-12-05T18:54:32.650Z,69.00
2017-12-05T18:56:58.902Z,68.70
2017-12-05T18:59:25.147Z,69.60
2017-12-05T19:01:51.398Z,69.70
2017-12-05T19:04:17.654Z,69.00
2017-12-05T19:06:44.645Z,69.30
2017-12-05T19:09:12.616Z,69.20
2017-12-05T19:11:38.921Z,69.40
2017-12-05T19:14:05.193Z,69.70
2017-12-05T19:16:31.455Z,70.40
2017-12-05T19:18:58.431Z,69.90
2017-12-05T19:21:24.722Z,69.90
2017-12-05T19:23:51.721Z,70.30
2017-12-05T19:26:17.988Z,70.20
2017-12-05T19:28:47.585Z,70.20
2017-12-05T19:31:13.991Z,70.30
2017-12-05T19:33:40.335Z,69.70
2017-12-05T19:36:06.555Z,69.70
2017-12-05T19:38:33.586Z,69.60
2017-12-05T19:40:59.897Z,69.60
2017-12-05T19:43:26.151Z,69.70
2017-12-05T19:45:58.034Z,69.80
2017-12-05T19:48:24.327Z,69.70
2017-12-05T19:50:51.376Z,69.60
2017-12-05T19:53:17.630Z,69.60
2017-12-05T19:55:43.878Z,69.30
2017-12-05T19:58:10.918Z,69.80
2017-12-05T20:00:37.150Z,69.90
2017-12-05T20:03:10.028Z,69.20
2017-12-05T20:05:37.034Z,69.20
2017-12-05T20:08:03.274Z,69.00
2017-12-05T20:10:29.500Z,69.00
2017-12-05T20:12:55.802Z,69.20
2017-12-05T20:15:22.045Z,68.10
2017-12-05T20:17:49.029Z,68.50
2017-12-05T20:20:18.161Z,68.30
2017-12-05T20:22:44.802Z,68.30
2017-12-05T20:25:11.070Z,68.30
2017-12-05T20:27:38.047Z,68.30
2017-12-05T20:30:04.281Z,68.20
2017-12-05T20:32:30.534Z,68.50
2017-12-05T20:34:56.753Z,68.80
2017-12-05T20:37:29.111Z,68.30
2017-12-05T20:39:55.337Z,68.30
2017-12-05T20:42:21.582Z,67.60
2017-12-05T20:44:47.861Z,67.80
2017-12-05T20:47:14.874Z,68.70
2017-12-05T20:49:41.157Z,69.00
2017-12-05T20:52:07.414Z,68.30
2017-12-05T20:54:34.417Z,67.90
2017-12-05T20:57:03.611Z,67.90
2017-12-05T20:59:29.910Z,68.00
2017-12-05T21:01:56.158Z,67.40
2017-12-05T21:04:23.143Z,68.20
2017-12-05T21:06:49.361Z,68.00
2017-12-05T21:09:15.595Z,67.30
2017-12-05T21:11:41.841Z,67.20
2017-12-05T21:14:08.886Z,67.00
2017-12-05T21:16:35.874Z,66.80
2017-12-05T21:19:02.201Z,66.70
2017-12-05T21:21:29.254Z,66.70
2017-12-05T21:23:55.519Z,66.70
2017-12-05T21:26:21.764Z,66.70
2017-12-05T21:28:48.737Z,66.60
2017-12-05T21:31:18.254Z,66.70
2017-12-05T21:33:45.228Z,65.80
2017-12-05T21:36:11.479Z,65.80
2017-12-05T21:38:38.478Z,65.60
2017-12-05T21:41:05.530Z,65.50
2017-12-05T21:43:31.748Z,65.50
2017-12-05T21:45:58.821Z,65.90
2017-12-05T21:48:25.048Z,65.80
2017-12-05T21:50:51.550Z,65.30
2017-12-05T21:53:19.589Z,65.30
2017-12-05T21:55:45.962Z,65.50
2017-12-05T21:58:12.183Z,65.70
2017-12-05T22:00:38.573Z,65.30
2017-12-05T22:03:05.842Z,65.00
2017-12-05T22:05:32.110Z,65.00
2017-12-05T22:07:58.381Z,65.30
2017-12-05T22:10:25.389Z,65.10
2017-12-05T22:12:51.630Z,65.10
2017-12-05T22:15:17.889Z,65.30
2017-12-05T22:17:44.151Z,65.50
2017-12-05T22:20:10.386Z,65.20
2017-12-05T22:22:37.358Z,65.30
2017-12-05T22:25:03.685Z,65.30
2017-12-05T22:27:29.946Z,65.00
2017-12-05T22:29:56.177Z,65.50
2017-12-05T22:32:23.185Z,65.30
2017-12-05T22:34:50.150Z,64.10
2017-12-05T22:37:16.377Z,64.10
2017-12-05T22:39:42.655Z,64.60
2017-12-05T22:42:08.930Z,64.80
2017-12-05T22:44:35.927Z,64.50
2017-12-05T22:47:02.299Z,64.40
2017-12-05T22:49:28.528Z,63.20
2017-12-05T22:51:54.781Z,63.30
2017-12-05T22:54:22.488Z,63.30
2017-12-05T22:56:48.835Z,63.20
2017-12-05T22:59:15.079Z,63.30
2017-12-05T23:01:42.066Z,63.10
2017-12-05T23:04:08.301Z,62.70
2017-12-05T23:06:34.691Z,63.20
2017-12-05T23:09:00.940Z,62.70
2017-12-05T23:11:27.163Z,63.20
2017-12-05T23:13:53.491Z,63.10
2017-12-05T23:16:19.765Z,62.60
2017-12-05T23:18:47.037Z,62.70
2017-12-05T23:21:13.266Z,62.40
2017-12-05T23:23:39.522Z,61.40
2017-12-05T23:26:06.504Z,62.10
2017-12-05T23:28:32.770Z,62.10
2017-12-05T23:30:58.997Z,63.00
2017-12-05T23:33:25.944Z,61.80
2017-12-05T23:35:52.139Z,61.80
2017-12-05T23:38:18.336Z,61.60
2017-12-05T23:40:45.287Z,62.80
2017-12-05T23:43:12.362Z,62.00
2017-12-05T23:45:38.563Z,61.90
2017-12-05T23:48:06.030Z,62.00
2017-12-05T23:50:32.262Z,62.50
2017-12-05T23:52:58.486Z,62.30
2017-12-05T23:55:24.710Z,61.60
2017-12-05T23:57:50.941Z,62.20
